Aviation Digital Data Service (ADDS)

Output produced by METARs form (0343 UTC 23 November 2017)
found at http://www.aviationweather.gov/adds/metars/
 
FIMR 230300Z 11015KT 9999 SCT016 BKN050 23/21 Q1014
TAF FIMR 222350Z 2300/2318 14015G25KT 9999 SCT017 
     TEMPO 2300/2306 14018G28KT 7000 -SHRA SCT015 BKN050
       
FIMP 230300Z 13008KT 6000 VCSH FEW008 BKN014 BKN050 24/18 Q1015
TAF FIMP 222345Z 2300/2406 13012KT 9999 SCT016 
     TEMPO 2300/2306 13015G25KT 7000 -SHRA BKN014 BKN050 
     PROB30 
     TEMPO 2318/2400 5000 SHRA FEW005 FEW012TCU BKN013